sensor_id;sensor_type;location;lat;lon;timestamp;P1;durP1;ratioP1;P2;durP2;ratioP2
17850;SDS011;9051;51.548;14.348;2023-04-30T00:01:13;8.50;;;7.13;;
17850;SDS011;9051;51.548;14.348;2023-04-30T00:03:44;10.40;;;6.93;;
17850;SDS011;9051;51.548;14.348;2023-04-30T00:06:16;8.23;;;7.17;;
17850;SDS011;9051;51.548;14.348;2023-04-30T00:08:48;8.50;;;7.47;;
17850;SDS011;9051;51.548;14.348;2023-04-30T00:11:20;8.73;;;7.03;;
17850;SDS011;9051;51.548;14.348;2023-04-30T00:13:54;11.90;;;7.70;;
17850;SDS011;9051;51.548;14.348;2023-04-30T00:16:26;10.13;;;7.27;;
17850;SDS011;9051;51.548;14.348;2023-04-30T00:18:58;8.27;;;7.07;;
17850;SDS011;9051;51.548;14.348;2023-04-30T00:21:30;9.70;;;8.10;;
17850;SDS011;9051;51.548;14.348;2023-04-30T00:24:02;8.97;;;7.13;;
17850;SDS011;9051;51.548;14.348;2023-04-30T00:26:35;9.70;;;7.40;;
17850;SDS011;9051;51.548;14.348;2023-04-30T00:29:09;10.93;;;7.67;;
17850;SDS011;9051;51.548;14.348;2023-04-30T00:31:41;9.60;;;7.17;;
17850;SDS011;9051;51.548;14.348;2023-04-30T00:34:13;8.03;;;7.20;;
17850;SDS011;9051;51.548;14.348;2023-04-30T00:36:45;8.60;;;7.03;;
17850;SDS011;9051;51.548;14.348;2023-04-30T00:39:17;7.90;;;7.07;;
17850;SDS011;9051;51.548;14.348;2023-04-30T00:41:49;8.70;;;6.83;;
17850;SDS011;9051;51.548;14.348;2023-04-30T00:44:23;8.13;;;6.93;;
17850;SDS011;9051;51.548;14.348;2023-04-30T00:46:55;8.07;;;6.50;;
17850;SDS011;9051;51.548;14.348;2023-04-30T00:49:27;11.03;;;7.00;;
17850;SDS011;9051;51.548;14.348;2023-04-30T00:51:59;7.93;;;7.13;;
17850;SDS011;9051;51.548;14.348;2023-04-30T00:54:31;8.43;;;7.00;;
17850;SDS011;9051;51.548;14.348;2023-04-30T00:57:03;7.77;;;6.97;;
17850;SDS011;9051;51.548;14.348;2023-04-30T00:59:39;9.80;;;7.13;;
17850;SDS011;9051;51.548;14.348;2023-04-30T01:02:12;8.40;;;6.93;;
17850;SDS011;9051;51.548;14.348;2023-04-30T01:04:44;8.80;;;7.03;;
17850;SDS011;9051;51.548;14.348;2023-04-30T01:07:17;8.67;;;7.20;;
17850;SDS011;9051;51.548;14.348;2023-04-30T01:09:50;9.33;;;6.90;;
17850;SDS011;9051;51.548;14.348;2023-04-30T01:12:24;7.87;;;6.80;;
17850;SDS011;9051;51.548;14.348;2023-04-30T01:15:20;10.53;;;7.67;;
17850;SDS011;9051;51.548;14.348;2023-04-30T01:17:58;7.87;;;7.00;;
17850;SDS011;9051;51.548;14.348;2023-04-30T01:20:35;10.53;;;7.97;;
17850;SDS011;9051;51.548;14.348;2023-04-30T01:23:17;8.60;;;7.20;;
17850;SDS011;9051;51.548;14.348;2023-04-30T01:26:04;9.30;;;7.43;;
17850;SDS011;9051;51.548;14.348;2023-04-30T01:28:43;9.30;;;7.40;;
17850;SDS011;9051;51.548;14.348;2023-04-30T01:31:17;8.33;;;7.37;;
17850;SDS011;9051;51.548;14.348;2023-04-30T01:33:50;9.80;;;7.23;;
17850;SDS011;9051;51.548;14.348;2023-04-30T01:36:29;8.17;;;7.33;;
17850;SDS011;9051;51.548;14.348;2023-04-30T01:39:14;11.93;;;7.90;;
17850;SDS011;9051;51.548;14.348;2023-04-30T01:42:00;9.33;;;7.83;;
17850;SDS011;9051;51.548;14.348;2023-04-30T01:44:42;9.63;;;7.50;;
17850;SDS011;9051;51.548;14.348;2023-04-30T01:47:40;7.83;;;7.03;;
17850;SDS011;9051;51.548;14.348;2023-04-30T01:50:23;9.30;;;8.27;;
17850;SDS011;9051;51.548;14.348;2023-04-30T01:53:01;10.27;;;8.20;;
17850;SDS011;9051;51.548;14.348;2023-04-30T01:55:35;8.83;;;7.93;;
17850;SDS011;9051;51.548;14.348;2023-04-30T01:58:12;10.40;;;7.53;;
17850;SDS011;9051;51.548;14.348;2023-04-30T02:00:46;8.80;;;7.47;;
17850;SDS011;9051;51.548;14.348;2023-04-30T02:03:18;9.67;;;7.60;;
17850;SDS011;9051;51.548;14.348;2023-04-30T02:05:50;8.53;;;7.23;;
17850;SDS011;9051;51.548;14.348;2023-04-30T02:08:24;8.43;;;6.90;;
17850;SDS011;9051;51.548;14.348;2023-04-30T02:10:56;9.37;;;7.40;;
17850;SDS011;9051;51.548;14.348;2023-04-30T02:13:28;9.67;;;7.30;;
17850;SDS011;9051;51.548;14.348;2023-04-30T02:16:01;9.63;;;7.93;;
17850;SDS011;9051;51.548;14.348;2023-04-30T02:18:34;9.70;;;7.60;;
17850;SDS011;9051;51.548;14.348;2023-04-30T02:21:06;8.77;;;7.70;;
17850;SDS011;9051;51.548;14.348;2023-04-30T02:23:38;8.43;;;7.20;;
17850;SDS011;9051;51.548;14.348;2023-04-30T02:26:11;9.83;;;7.63;;
17850;SDS011;9051;51.548;14.348;2023-04-30T02:28:43;8.50;;;7.43;;
17850;SDS011;9051;51.548;14.348;2023-04-30T02:31:16;8.40;;;7.50;;
17850;SDS011;9051;51.548;14.348;2023-04-30T02:33:49;9.00;;;7.70;;
17850;SDS011;9051;51.548;14.348;2023-04-30T02:36:21;9.67;;;8.17;;
17850;SDS011;9051;51.548;14.348;2023-04-30T02:38:53;8.27;;;7.23;;
17850;SDS011;9051;51.548;14.348;2023-04-30T02:41:25;8.73;;;7.63;;
17850;SDS011;9051;51.548;14.348;2023-04-30T02:43:57;10.33;;;7.50;;
17850;SDS011;9051;51.548;14.348;2023-04-30T02:46:30;9.97;;;6.77;;
17850;SDS011;9051;51.548;14.348;2023-04-30T02:49:02;8.37;;;7.33;;
17850;SDS011;9051;51.548;14.348;2023-04-30T02:51:34;9.53;;;6.70;;
17850;SDS011;9051;51.548;14.348;2023-04-30T02:54:06;11.40;;;7.43;;
17850;SDS011;9051;51.548;14.348;2023-04-30T02:56:38;7.80;;;6.23;;
17850;SDS011;9051;51.548;14.348;2023-04-30T02:59:10;7.33;;;5.83;;
17850;SDS011;9051;51.548;14.348;2023-04-30T03:01:44;6.90;;;5.73;;
17850;SDS011;9051;51.548;14.348;2023-04-30T03:04:16;7.60;;;5.17;;
17850;SDS011;9051;51.548;14.348;2023-04-30T03:06:48;6.47;;;5.63;;
17850;SDS011;9051;51.548;14.348;2023-04-30T03:09:20;6.67;;;5.77;;
17850;SDS011;9051;51.548;14.348;2023-04-30T03:11:52;7.70;;;5.00;;
17850;SDS011;9051;51.548;14.348;2023-04-30T03:14:24;6.30;;;5.50;;
17850;SDS011;9051;51.548;14.348;2023-04-30T03:16:57;5.63;;;4.87;;
17850;SDS011;9051;51.548;14.348;2023-04-30T03:19:29;7.60;;;5.63;;
17850;SDS011;9051;51.548;14.348;2023-04-30T03:22:01;5.23;;;4.63;;
17850;SDS011;9051;51.548;14.348;2023-04-30T03:24:33;9.53;;;5.77;;
17850;SDS011;9051;51.548;14.348;2023-04-30T03:27:05;10.07;;;5.50;;
17850;SDS011;9051;51.548;14.348;2023-04-30T03:29:37;6.13;;;5.40;;
17850;SDS011;9051;51.548;14.348;2023-04-30T03:32:11;5.70;;;5.10;;
17850;SDS011;9051;51.548;14.348;2023-04-30T03:34:42;7.43;;;5.30;;
17850;SDS011;9051;51.548;14.348;2023-04-30T03:37:15;4.93;;;4.13;;
17850;SDS011;9051;51.548;14.348;2023-04-30T03:39:47;6.20;;;4.37;;
17850;SDS011;9051;51.548;14.348;2023-04-30T03:42:19;7.27;;;5.03;;
17850;SDS011;9051;51.548;14.348;2023-04-30T03:44:51;7.67;;;4.47;;
17850;SDS011;9051;51.548;14.348;2023-04-30T03:47:24;5.13;;;4.63;;
17850;SDS011;9051;51.548;14.348;2023-04-30T03:49:57;6.13;;;4.03;;
17850;SDS011;9051;51.548;14.348;2023-04-30T03:52:29;5.07;;;4.10;;
17850;SDS011;9051;51.548;14.348;2023-04-30T03:55:03;5.70;;;4.30;;
17850;SDS011;9051;51.548;14.348;2023-04-30T03:57:36;8.90;;;4.37;;
17850;SDS011;9051;51.548;14.348;2023-04-30T04:00:09;5.53;;;4.30;;
17850;SDS011;9051;51.548;14.348;2023-04-30T04:02:51;6.60;;;4.20;;
17850;SDS011;9051;51.548;14.348;2023-04-30T04:05:23;5.83;;;3.83;;
17850;SDS011;9051;51.548;14.348;2023-04-30T04:07:55;4.80;;;4.00;;
17850;SDS011;9051;51.548;14.348;2023-04-30T04:10:27;5.27;;;3.93;;
17850;SDS011;9051;51.548;14.348;2023-04-30T04:13:00;8.63;;;3.80;;
17850;SDS011;9051;51.548;14.348;2023-04-30T04:15:32;8.43;;;3.90;;
17850;SDS011;9051;51.548;14.348;2023-04-30T04:18:06;6.50;;;3.83;;
17850;SDS011;9051;51.548;14.348;2023-04-30T04:20:38;5.37;;;3.80;;
17850;SDS011;9051;51.548;14.348;2023-04-30T04:23:10;5.50;;;3.83;;
17850;SDS011;9051;51.548;14.348;2023-04-30T04:25:42;7.10;;;4.03;;
17850;SDS011;9051;51.548;14.348;2023-04-30T04:28:16;6.60;;;3.83;;
17850;SDS011;9051;51.548;14.348;2023-04-30T04:30:48;4.27;;;3.70;;
17850;SDS011;9051;51.548;14.348;2023-04-30T04:33:21;5.50;;;3.97;;
17850;SDS011;9051;51.548;14.348;2023-04-30T04:35:53;5.60;;;3.90;;
17850;SDS011;9051;51.548;14.348;2023-04-30T04:38:27;9.07;;;3.73;;
17850;SDS011;9051;51.548;14.348;2023-04-30T04:40:59;7.07;;;4.13;;
17850;SDS011;9051;51.548;14.348;2023-04-30T04:43:31;6.70;;;4.10;;
17850;SDS011;9051;51.548;14.348;2023-04-30T04:46:02;5.43;;;3.60;;
17850;SDS011;9051;51.548;14.348;2023-04-30T04:48:36;6.57;;;3.97;;
17850;SDS011;9051;51.548;14.348;2023-04-30T04:51:08;5.13;;;3.63;;
17850;SDS011;9051;51.548;14.348;2023-04-30T04:53:40;6.03;;;3.80;;
17850;SDS011;9051;51.548;14.348;2023-04-30T04:56:13;6.90;;;3.63;;
17850;SDS011;9051;51.548;14.348;2023-04-30T04:58:48;4.67;;;3.50;;
17850;SDS011;9051;51.548;14.348;2023-04-30T05:01:20;5.30;;;3.37;;
17850;SDS011;9051;51.548;14.348;2023-04-30T05:03:55;6.47;;;3.67;;
17850;SDS011;9051;51.548;14.348;2023-04-30T05:06:27;5.23;;;3.40;;
17850;SDS011;9051;51.548;14.348;2023-04-30T05:08:58;6.90;;;3.90;;
17850;SDS011;9051;51.548;14.348;2023-04-30T05:11:32;5.43;;;3.57;;
17850;SDS011;9051;51.548;14.348;2023-04-30T05:14:03;5.30;;;3.43;;
17850;SDS011;9051;51.548;14.348;2023-04-30T05:16:36;7.30;;;3.67;;
17850;SDS011;9051;51.548;14.348;2023-04-30T05:19:09;5.70;;;3.37;;
17850;SDS011;9051;51.548;14.348;2023-04-30T05:21:41;6.27;;;2.73;;
17850;SDS011;9051;51.548;14.348;2023-04-30T05:24:13;7.07;;;3.10;;
17850;SDS011;9051;51.548;14.348;2023-04-30T05:26:45;5.67;;;2.97;;
17850;SDS011;9051;51.548;14.348;2023-04-30T05:29:17;5.63;;;3.07;;
17850;SDS011;9051;51.548;14.348;2023-04-30T05:31:48;5.57;;;2.97;;
17850;SDS011;9051;51.548;14.348;2023-04-30T05:34:22;3.40;;;2.93;;
17850;SDS011;9051;51.548;14.348;2023-04-30T05:36:54;7.13;;;3.30;;
17850;SDS011;9051;51.548;14.348;2023-04-30T05:39:26;5.27;;;3.07;;
17850;SDS011;9051;51.548;14.348;2023-04-30T05:41:57;5.53;;;3.30;;
17850;SDS011;9051;51.548;14.348;2023-04-30T05:44:31;7.70;;;3.20;;
17850;SDS011;9051;51.548;14.348;2023-04-30T05:47:03;6.77;;;2.73;;
17850;SDS011;9051;51.548;14.348;2023-04-30T05:49:36;6.60;;;2.80;;
17850;SDS011;9051;51.548;14.348;2023-04-30T05:52:08;5.80;;;2.50;;
17850;SDS011;9051;51.548;14.348;2023-04-30T05:54:40;7.77;;;2.70;;
17850;SDS011;9051;51.548;14.348;2023-04-30T05:57:12;6.10;;;3.20;;
17850;SDS011;9051;51.548;14.348;2023-04-30T05:59:44;8.23;;;2.93;;
17850;SDS011;9051;51.548;14.348;2023-04-30T06:02:16;7.80;;;3.00;;
17850;SDS011;9051;51.548;14.348;2023-04-30T06:04:49;8.00;;;3.10;;
17850;SDS011;9051;51.548;14.348;2023-04-30T06:07:21;7.23;;;2.73;;
17850;SDS011;9051;51.548;14.348;2023-04-30T06:09:53;6.40;;;3.20;;
17850;SDS011;9051;51.548;14.348;2023-04-30T06:12:25;5.97;;;2.90;;
17850;SDS011;9051;51.548;14.348;2023-04-30T06:14:57;4.20;;;3.10;;
17850;SDS011;9051;51.548;14.348;2023-04-30T06:17:29;6.13;;;3.17;;
17850;SDS011;9051;51.548;14.348;2023-04-30T06:20:03;6.17;;;4.03;;
17850;SDS011;9051;51.548;14.348;2023-04-30T06:22:35;4.87;;;3.17;;
17850;SDS011;9051;51.548;14.348;2023-04-30T06:25:10;7.53;;;3.10;;
17850;SDS011;9051;51.548;14.348;2023-04-30T06:27:42;7.00;;;2.77;;
17850;SDS011;9051;51.548;14.348;2023-04-30T06:30:14;3.67;;;2.60;;
17850;SDS011;9051;51.548;14.348;2023-04-30T06:32:47;3.60;;;2.63;;
17850;SDS011;9051;51.548;14.348;2023-04-30T06:35:35;7.27;;;3.00;;
17850;SDS011;9051;51.548;14.348;2023-04-30T06:38:07;6.97;;;3.00;;
17850;SDS011;9051;51.548;14.348;2023-04-30T06:40:39;5.47;;;2.87;;
17850;SDS011;9051;51.548;14.348;2023-04-30T06:43:11;5.57;;;2.60;;
17850;SDS011;9051;51.548;14.348;2023-04-30T06:45:43;5.93;;;2.67;;
17850;SDS011;9051;51.548;14.348;2023-04-30T06:48:18;4.47;;;3.20;;
17850;SDS011;9051;51.548;14.348;2023-04-30T06:50:52;7.47;;;2.90;;
17850;SDS011;9051;51.548;14.348;2023-04-30T06:53:24;8.27;;;2.87;;
17850;SDS011;9051;51.548;14.348;2023-04-30T06:55:56;5.47;;;2.57;;
17850;SDS011;9051;51.548;14.348;2023-04-30T06:58:31;7.10;;;2.23;;
17850;SDS011;9051;51.548;14.348;2023-04-30T07:01:03;7.53;;;2.60;;
17850;SDS011;9051;51.548;14.348;2023-04-30T07:03:35;6.20;;;2.53;;
17850;SDS011;9051;51.548;14.348;2023-04-30T07:06:10;9.63;;;2.80;;
17850;SDS011;9051;51.548;14.348;2023-04-30T07:08:42;5.97;;;2.70;;
17850;SDS011;9051;51.548;14.348;2023-04-30T07:11:14;7.00;;;3.13;;
17850;SDS011;9051;51.548;14.348;2023-04-30T07:13:46;6.63;;;2.60;;
17850;SDS011;9051;51.548;14.348;2023-04-30T07:16:17;4.17;;;2.63;;
17850;SDS011;9051;51.548;14.348;2023-04-30T07:18:50;6.33;;;2.97;;
17850;SDS011;9051;51.548;14.348;2023-04-30T07:21:24;4.87;;;2.63;;
17850;SDS011;9051;51.548;14.348;2023-04-30T07:23:56;9.70;;;3.10;;
17850;SDS011;9051;51.548;14.348;2023-04-30T07:26:29;7.07;;;2.93;;
17850;SDS011;9051;51.548;14.348;2023-04-30T07:29:01;5.20;;;2.50;;
17850;SDS011;9051;51.548;14.348;2023-04-30T07:31:33;6.53;;;2.50;;
17850;SDS011;9051;51.548;14.348;2023-04-30T07:34:05;7.87;;;2.33;;
17850;SDS011;9051;51.548;14.348;2023-04-30T07:36:39;7.10;;;3.00;;
17850;SDS011;9051;51.548;14.348;2023-04-30T07:39:11;7.60;;;2.63;;
17850;SDS011;9051;51.548;14.348;2023-04-30T07:41:43;6.07;;;2.73;;
17850;SDS011;9051;51.548;14.348;2023-04-30T07:44:15;5.60;;;2.67;;
17850;SDS011;9051;51.548;14.348;2023-04-30T07:46:48;4.97;;;2.80;;
17850;SDS011;9051;51.548;14.348;2023-04-30T07:49:20;6.40;;;2.73;;
17850;SDS011;9051;51.548;14.348;2023-04-30T07:51:53;5.50;;;2.47;;
17850;SDS011;9051;51.548;14.348;2023-04-30T07:54:25;8.57;;;4.10;;
17850;SDS011;9051;51.548;14.348;2023-04-30T07:56:57;9.17;;;3.20;;
17850;SDS011;9051;51.548;14.348;2023-04-30T07:59:29;5.13;;;2.90;;
17850;SDS011;9051;51.548;14.348;2023-04-30T08:02:03;7.83;;;3.73;;
17850;SDS011;9051;51.548;14.348;2023-04-30T08:04:35;9.07;;;3.23;;
17850;SDS011;9051;51.548;14.348;2023-04-30T08:07:09;9.17;;;3.47;;
17850;SDS011;9051;51.548;14.348;2023-04-30T08:09:41;11.27;;;3.43;;
17850;SDS011;9051;51.548;14.348;2023-04-30T08:12:13;7.37;;;3.07;;
17850;SDS011;9051;51.548;14.348;2023-04-30T08:14:47;5.83;;;2.87;;
17850;SDS011;9051;51.548;14.348;2023-04-30T08:17:19;7.90;;;3.87;;
17850;SDS011;9051;51.548;14.348;2023-04-30T08:19:51;7.83;;;3.50;;
17850;SDS011;9051;51.548;14.348;2023-04-30T08:22:24;6.43;;;2.80;;
17850;SDS011;9051;51.548;14.348;2023-04-30T08:24:56;6.27;;;2.93;;
17850;SDS011;9051;51.548;14.348;2023-04-30T08:27:30;7.33;;;3.40;;
17850;SDS011;9051;51.548;14.348;2023-04-30T08:30:03;5.70;;;2.97;;
17850;SDS011;9051;51.548;14.348;2023-04-30T08:32:36;7.40;;;3.23;;
17850;SDS011;9051;51.548;14.348;2023-04-30T08:35:08;6.53;;;3.13;;
17850;SDS011;9051;51.548;14.348;2023-04-30T08:37:42;10.67;;;3.27;;
17850;SDS011;9051;51.548;14.348;2023-04-30T08:40:14;6.10;;;3.20;;
17850;SDS011;9051;51.548;14.348;2023-04-30T08:42:48;4.37;;;3.27;;
17850;SDS011;9051;51.548;14.348;2023-04-30T08:45:24;8.27;;;3.53;;
17850;SDS011;9051;51.548;14.348;2023-04-30T08:47:56;9.73;;;5.57;;
17850;SDS011;9051;51.548;14.348;2023-04-30T08:50:30;6.90;;;3.17;;
17850;SDS011;9051;51.548;14.348;2023-04-30T08:53:05;17.43;;;11.27;;
17850;SDS011;9051;51.548;14.348;2023-04-30T08:55:38;7.63;;;3.70;;
17850;SDS011;9051;51.548;14.348;2023-04-30T08:58:12;5.70;;;4.20;;
17850;SDS011;9051;51.548;14.348;2023-04-30T09:00:45;7.30;;;3.50;;
17850;SDS011;9051;51.548;14.348;2023-04-30T09:03:18;6.67;;;3.20;;
17850;SDS011;9051;51.548;14.348;2023-04-30T09:05:53;6.07;;;2.73;;
17850;SDS011;9051;51.548;14.348;2023-04-30T09:08:43;4.53;;;3.07;;
17850;SDS011;9051;51.548;14.348;2023-04-30T09:11:23;3.73;;;3.10;;
17850;SDS011;9051;51.548;14.348;2023-04-30T09:13:57;7.03;;;3.10;;
17850;SDS011;9051;51.548;14.348;2023-04-30T09:16:45;6.60;;;3.03;;
17850;SDS011;9051;51.548;14.348;2023-04-30T09:19:22;4.10;;;2.63;;
17850;SDS011;9051;51.548;14.348;2023-04-30T09:21:55;5.43;;;3.03;;
17850;SDS011;9051;51.548;14.348;2023-04-30T09:24:28;5.67;;;2.83;;
17850;SDS011;9051;51.548;14.348;2023-04-30T09:27:18;6.13;;;3.00;;
17850;SDS011;9051;51.548;14.348;2023-04-30T09:29:50;8.27;;;3.00;;
17850;SDS011;9051;51.548;14.348;2023-04-30T09:32:22;5.97;;;3.20;;
17850;SDS011;9051;51.548;14.348;2023-04-30T09:34:55;5.70;;;3.10;;
17850;SDS011;9051;51.548;14.348;2023-04-30T09:37:36;4.93;;;3.30;;
17850;SDS011;9051;51.548;14.348;2023-04-30T09:40:10;4.77;;;2.87;;
17850;SDS011;9051;51.548;14.348;2023-04-30T09:42:56;5.40;;;2.70;;
17850;SDS011;9051;51.548;14.348;2023-04-30T09:45:37;6.57;;;2.97;;
17850;SDS011;9051;51.548;14.348;2023-04-30T09:48:10;4.23;;;2.37;;
17850;SDS011;9051;51.548;14.348;2023-04-30T09:50:42;5.30;;;2.60;;
17850;SDS011;9051;51.548;14.348;2023-04-30T09:53:16;4.50;;;3.13;;
17850;SDS011;9051;51.548;14.348;2023-04-30T09:55:50;7.50;;;3.17;;
17850;SDS011;9051;51.548;14.348;2023-04-30T09:58:22;4.20;;;2.40;;
17850;SDS011;9051;51.548;14.348;2023-04-30T10:00:58;6.87;;;3.10;;
17850;SDS011;9051;51.548;14.348;2023-04-30T10:03:33;4.30;;;2.80;;
17850;SDS011;9051;51.548;14.348;2023-04-30T10:06:06;8.50;;;6.60;;
17850;SDS011;9051;51.548;14.348;2023-04-30T10:08:40;9.57;;;6.30;;
17850;SDS011;9051;51.548;14.348;2023-04-30T10:11:17;5.87;;;2.40;;
17850;SDS011;9051;51.548;14.348;2023-04-30T10:13:51;4.53;;;2.50;;
17850;SDS011;9051;51.548;14.348;2023-04-30T10:16:29;5.70;;;2.43;;
17850;SDS011;9051;51.548;14.348;2023-04-30T10:19:11;6.20;;;3.07;;
17850;SDS011;9051;51.548;14.348;2023-04-30T10:21:45;5.90;;;2.57;;
17850;SDS011;9051;51.548;14.348;2023-04-30T10:24:18;3.63;;;2.33;;
17850;SDS011;9051;51.548;14.348;2023-04-30T10:26:52;7.27;;;2.57;;
17850;SDS011;9051;51.548;14.348;2023-04-30T10:29:26;7.17;;;2.70;;
17850;SDS011;9051;51.548;14.348;2023-04-30T10:31:58;6.17;;;2.37;;
17850;SDS011;9051;51.548;14.348;2023-04-30T10:34:42;4.27;;;2.27;;
17850;SDS011;9051;51.548;14.348;2023-04-30T10:37:20;6.57;;;2.50;;
17850;SDS011;9051;51.548;14.348;2023-04-30T10:39:58;4.93;;;2.20;;
17850;SDS011;9051;51.548;14.348;2023-04-30T11:21:23;5.00;;;2.40;;
17850;SDS011;9051;51.548;14.348;2023-04-30T11:24:01;2.83;;;2.30;;
17850;SDS011;9051;51.548;14.348;2023-04-30T11:29:35;4.03;;;2.23;;
17850;SDS011;9051;51.548;14.348;2023-04-30T11:32:09;4.93;;;2.50;;
17850;SDS011;9051;51.548;14.348;2023-04-30T11:34:42;3.33;;;2.33;;
17850;SDS011;9051;51.548;14.348;2023-04-30T11:37:17;6.80;;;2.70;;
17850;SDS011;9051;51.548;14.348;2023-04-30T11:39:49;4.47;;;2.50;;
17850;SDS011;9051;51.548;14.348;2023-04-30T11:42:22;4.17;;;2.40;;
17850;SDS011;9051;51.548;14.348;2023-04-30T11:44:54;4.33;;;2.50;;
17850;SDS011;9051;51.548;14.348;2023-04-30T11:47:39;3.20;;;2.13;;
17850;SDS011;9051;51.548;14.348;2023-04-30T11:50:12;2.80;;;2.23;;
17850;SDS011;9051;51.548;14.348;2023-04-30T11:52:49;3.23;;;2.10;;
17850;SDS011;9051;51.548;14.348;2023-04-30T11:55:22;5.00;;;2.00;;
17850;SDS011;9051;51.548;14.348;2023-04-30T11:57:55;3.57;;;1.80;;
17850;SDS011;9051;51.548;14.348;2023-04-30T12:00:29;3.57;;;2.37;;
17850;SDS011;9051;51.548;14.348;2023-04-30T12:03:02;4.87;;;1.87;;
17850;SDS011;9051;51.548;14.348;2023-04-30T12:05:34;5.97;;;3.03;;
17850;SDS011;9051;51.548;14.348;2023-04-30T12:08:07;3.70;;;2.47;;
17850;SDS011;9051;51.548;14.348;2023-04-30T12:10:39;3.50;;;2.20;;
17850;SDS011;9051;51.548;14.348;2023-04-30T12:13:12;2.67;;;2.20;;
17850;SDS011;9051;51.548;14.348;2023-04-30T12:15:56;3.07;;;2.47;;
17850;SDS011;9051;51.548;14.348;2023-04-30T12:18:29;4.73;;;2.70;;
17850;SDS011;9051;51.548;14.348;2023-04-30T12:21:03;5.77;;;2.33;;
17850;SDS011;9051;51.548;14.348;2023-04-30T12:23:37;3.70;;;2.10;;
17850;SDS011;9051;51.548;14.348;2023-04-30T12:26:09;3.07;;;2.10;;
17850;SDS011;9051;51.548;14.348;2023-04-30T12:28:41;3.47;;;2.23;;
17850;SDS011;9051;51.548;14.348;2023-04-30T12:31:13;4.70;;;2.33;;
17850;SDS011;9051;51.548;14.348;2023-04-30T12:33:52;3.23;;;2.10;;
17850;SDS011;9051;51.548;14.348;2023-04-30T12:36:29;4.93;;;2.07;;
17850;SDS011;9051;51.548;14.348;2023-04-30T12:39:06;3.43;;;1.87;;
17850;SDS011;9051;51.548;14.348;2023-04-30T12:41:39;3.23;;;2.10;;
17850;SDS011;9051;51.548;14.348;2023-04-30T12:44:12;2.83;;;2.07;;
17850;SDS011;9051;51.548;14.348;2023-04-30T12:46:48;4.37;;;2.27;;
17850;SDS011;9051;51.548;14.348;2023-04-30T12:49:23;3.07;;;2.10;;
17850;SDS011;9051;51.548;14.348;2023-04-30T12:51:57;6.47;;;2.23;;
17850;SDS011;9051;51.548;14.348;2023-04-30T12:54:32;3.93;;;2.47;;
17850;SDS011;9051;51.548;14.348;2023-04-30T12:57:06;3.80;;;2.10;;
17850;SDS011;9051;51.548;14.348;2023-04-30T12:59:39;3.80;;;2.17;;
17850;SDS011;9051;51.548;14.348;2023-04-30T13:02:27;3.63;;;2.17;;
17850;SDS011;9051;51.548;14.348;2023-04-30T13:05:01;4.63;;;2.40;;
17850;SDS011;9051;51.548;14.348;2023-04-30T13:07:47;6.00;;;2.30;;
17850;SDS011;9051;51.548;14.348;2023-04-30T14:19:49;4.13;;;2.50;;
17850;SDS011;9051;51.548;14.348;2023-04-30T14:22:21;5.10;;;2.20;;
17850;SDS011;9051;51.548;14.348;2023-04-30T14:24:53;5.17;;;2.23;;
17850;SDS011;9051;51.548;14.348;2023-04-30T14:27:25;4.27;;;2.30;;
17850;SDS011;9051;51.548;14.348;2023-04-30T14:29:57;4.27;;;2.30;;
17850;SDS011;9051;51.548;14.348;2023-04-30T14:32:29;5.00;;;2.10;;
17850;SDS011;9051;51.548;14.348;2023-04-30T14:35:04;6.33;;;2.37;;
17850;SDS011;9051;51.548;14.348;2023-04-30T14:37:37;4.90;;;2.23;;
17850;SDS011;9051;51.548;14.348;2023-04-30T14:40:09;7.03;;;2.07;;
17850;SDS011;9051;51.548;14.348;2023-04-30T14:42:41;2.57;;;1.93;;
17850;SDS011;9051;51.548;14.348;2023-04-30T14:45:13;5.30;;;2.07;;
17850;SDS011;9051;51.548;14.348;2023-04-30T14:47:45;4.00;;;1.93;;
17850;SDS011;9051;51.548;14.348;2023-04-30T14:50:19;4.63;;;2.23;;
17850;SDS011;9051;51.548;14.348;2023-04-30T14:52:51;3.47;;;1.90;;
17850;SDS011;9051;51.548;14.348;2023-04-30T14:55:23;4.90;;;2.37;;
17850;SDS011;9051;51.548;14.348;2023-04-30T14:57:55;3.93;;;2.20;;
17850;SDS011;9051;51.548;14.348;2023-04-30T15:00:28;4.00;;;2.00;;
17850;SDS011;9051;51.548;14.348;2023-04-30T15:02:59;2.77;;;2.00;;
17850;SDS011;9051;51.548;14.348;2023-04-30T15:05:35;2.53;;;2.00;;
17850;SDS011;9051;51.548;14.348;2023-04-30T15:08:10;2.80;;;1.87;;
17850;SDS011;9051;51.548;14.348;2023-04-30T15:10:42;4.53;;;2.00;;
17850;SDS011;9051;51.548;14.348;2023-04-30T15:13:14;3.50;;;2.10;;
17850;SDS011;9051;51.548;14.348;2023-04-30T15:15:45;3.37;;;2.00;;
17850;SDS011;9051;51.548;14.348;2023-04-30T15:18:18;3.60;;;2.03;;
17850;SDS011;9051;51.548;14.348;2023-04-30T15:20:52;2.83;;;2.00;;
17850;SDS011;9051;51.548;14.348;2023-04-30T15:23:26;2.97;;;1.93;;
17850;SDS011;9051;51.548;14.348;2023-04-30T15:25:59;2.77;;;1.80;;
17850;SDS011;9051;51.548;14.348;2023-04-30T15:28:32;3.47;;;1.70;;
17850;SDS011;9051;51.548;14.348;2023-04-30T15:31:05;3.00;;;2.10;;
17850;SDS011;9051;51.548;14.348;2023-04-30T15:33:37;3.13;;;1.80;;
17850;SDS011;9051;51.548;14.348;2023-04-30T15:36:12;4.10;;;1.70;;
17850;SDS011;9051;51.548;14.348;2023-04-30T15:38:44;2.37;;;1.90;;
17850;SDS011;9051;51.548;14.348;2023-04-30T15:41:16;3.53;;;1.77;;
17850;SDS011;9051;51.548;14.348;2023-04-30T15:43:50;3.57;;;1.90;;
17850;SDS011;9051;51.548;14.348;2023-04-30T15:46:22;3.70;;;1.80;;
17850;SDS011;9051;51.548;14.348;2023-04-30T15:48:54;2.70;;;1.80;;
17850;SDS011;9051;51.548;14.348;2023-04-30T15:51:28;3.33;;;2.00;;
17850;SDS011;9051;51.548;14.348;2023-04-30T15:54:00;3.30;;;1.87;;
17850;SDS011;9051;51.548;14.348;2023-04-30T15:56:32;4.10;;;2.10;;
17850;SDS011;9051;51.548;14.348;2023-04-30T15:59:04;4.13;;;1.83;;
17850;SDS011;9051;51.548;14.348;2023-04-30T16:01:37;3.10;;;1.90;;
17850;SDS011;9051;51.548;14.348;2023-04-30T16:04:09;4.53;;;1.90;;
17850;SDS011;9051;51.548;14.348;2023-04-30T16:06:43;2.87;;;2.10;;
17850;SDS011;9051;51.548;14.348;2023-04-30T16:09:15;3.00;;;1.70;;
17850;SDS011;9051;51.548;14.348;2023-04-30T16:11:48;3.87;;;2.07;;
17850;SDS011;9051;51.548;14.348;2023-04-30T16:14:21;2.00;;;1.70;;
17850;SDS011;9051;51.548;14.348;2023-04-30T16:16:54;4.03;;;1.73;;
17850;SDS011;9051;51.548;14.348;2023-04-30T16:19:26;3.07;;;1.73;;
17850;SDS011;9051;51.548;14.348;2023-04-30T16:21:59;4.00;;;2.10;;
17850;SDS011;9051;51.548;14.348;2023-04-30T16:24:32;3.23;;;1.60;;
17850;SDS011;9051;51.548;14.348;2023-04-30T16:27:04;2.13;;;1.67;;
17850;SDS011;9051;51.548;14.348;2023-04-30T16:29:37;3.07;;;1.70;;
17850;SDS011;9051;51.548;14.348;2023-04-30T16:32:11;5.33;;;2.00;;
17850;SDS011;9051;51.548;14.348;2023-04-30T16:34:43;2.73;;;1.73;;
17850;SDS011;9051;51.548;14.348;2023-04-30T16:37:16;3.10;;;1.97;;
17850;SDS011;9051;51.548;14.348;2023-04-30T16:39:48;4.87;;;2.00;;
17850;SDS011;9051;51.548;14.348;2023-04-30T16:42:20;3.27;;;1.80;;
17850;SDS011;9051;51.548;14.348;2023-04-30T16:44:52;5.17;;;2.30;;
17850;SDS011;9051;51.548;14.348;2023-04-30T16:47:24;3.00;;;1.97;;
17850;SDS011;9051;51.548;14.348;2023-04-30T16:49:56;4.13;;;2.00;;
17850;SDS011;9051;51.548;14.348;2023-04-30T16:52:30;3.73;;;1.80;;
17850;SDS011;9051;51.548;14.348;2023-04-30T16:55:03;2.77;;;2.13;;
17850;SDS011;9051;51.548;14.348;2023-04-30T16:57:35;3.63;;;1.80;;
17850;SDS011;9051;51.548;14.348;2023-04-30T17:00:07;2.87;;;1.80;;
17850;SDS011;9051;51.548;14.348;2023-04-30T17:02:43;3.33;;;2.00;;
17850;SDS011;9051;51.548;14.348;2023-04-30T17:05:17;3.80;;;2.10;;
17850;SDS011;9051;51.548;14.348;2023-04-30T17:07:51;5.60;;;2.47;;
17850;SDS011;9051;51.548;14.348;2023-04-30T17:10:23;4.13;;;2.03;;
17850;SDS011;9051;51.548;14.348;2023-04-30T17:15:50;3.27;;;2.10;;
17850;SDS011;9051;51.548;14.348;2023-04-30T17:18:25;4.53;;;2.07;;
17850;SDS011;9051;51.548;14.348;2023-04-30T17:20:57;4.37;;;1.90;;